Time;durP1;ratioP1;P1;durP2;ratioP2;P2;SDS_P1;SDS_P2;PMS_P1;PMS_P2;Temp;Humidity;BMP_temperature;BMP_pressure;BME280_temperature;BME280_humidity;BME280_pressure;Samples;Min_cycle;Max_cycle;Signal;HPM_P1;HPM_P2
2020/12/17 00:04:02;;;;;;;9.50;7.45;;;;;;;8.67;100.00;100709.59;10143339;29;20060;-69
2020/12/17 00:09:11;;;;;;;13.00;9.45;;;;;;;8.62;100.00;100727.28;10139796;29;20066;-69
2020/12/17 00:14:13;;;;;;;23.33;10.73;;;;;;;8.64;100.00;100725.44;10161392;29;20044;-69
2020/12/17 00:19:14;;;;;;;12.13;9.85;;;;;;;8.67;100.00;100728.81;10175414;29;20048;-69
2020/12/17 00:24:15;;;;;;;12.40;10.25;;;;;;;8.55;100.00;100715.25;10175477;29;20059;-69
2020/12/17 00:29:16;;;;;;;14.55;10.63;;;;;;;8.52;100.00;100720.63;10173339;29;20067;-69
2020/12/17 00:34:18;;;;;;;13.43;11.77;;;;;;;8.53;100.00;100735.47;10174240;29;20107;-69
2020/12/17 00:39:23;;;;;;;17.33;12.35;;;;;;;8.52;100.00;100724.09;10174019;29;20040;-69
2020/12/17 00:44:24;;;;;;;13.63;11.35;;;;;;;8.53;100.00;100725.81;10174203;29;20095;-69
2020/12/17 00:49:26;;;;;;;14.25;11.80;;;;;;;8.45;100.00;100722.59;10173835;29;20051;-69
2020/12/17 00:54:28;;;;;;;12.82;10.00;;;;;;;8.42;100.00;100722.69;10173680;29;20408;-69
2020/12/17 00:59:29;;;;;;;14.35;10.70;;;;;;;8.36;100.00;100730.78;10182514;29;20046;-69
2020/12/17 01:04:30;;;;;;;14.07;10.63;;;;;;;8.37;100.00;100743.81;10173158;29;20044;-69
2020/12/17 01:09:38;;;;;;;14.23;11.43;;;;;;;8.52;100.00;100758.25;10179527;29;20480;-69
2020/12/17 01:14:39;;;;;;;15.02;12.32;;;;;;;8.35;100.00;100756.16;10201103;29;20489;-69
2020/12/17 01:19:41;;;;;;;17.50;13.30;;;;;;;8.30;100.00;100754.53;10177959;29;20507;-69
2020/12/17 01:24:43;;;;;;;15.65;11.63;;;;;;;8.35;100.00;100744.81;10182379;29;20040;-69
2020/12/17 01:29:44;;;;;;;13.43;12.00;;;;;;;8.42;100.00;100762.06;10180505;29;20052;-69
2020/12/17 01:34:46;;;;;;;13.65;10.23;;;;;;;8.44;100.00;100752.38;10180521;29;20048;-69
2020/12/17 01:39:56;;;;;;;15.43;11.25;;;;;;;8.53;100.00;100753.84;10181476;29;20547;-69
2020/12/17 01:44:57;;;;;;;13.73;10.77;;;;;;;8.54;100.00;100753.78;10179669;29;20044;-69
2020/12/17 01:50:00;;;;;;;13.40;11.88;;;;;;;8.52;100.00;100765.25;10180103;29;20059;-69
2020/12/17 01:55:02;;;;;;;15.88;12.80;;;;;;;8.49;100.00;100770.59;10180552;29;20404;-69
2020/12/17 02:00:07;;;;;;;14.32;11.43;;;;;;;8.42;100.00;100764.69;10181031;29;20056;-69
2020/12/17 02:05:08;;;;;;;13.50;10.90;;;;;;;8.48;100.00;100759.22;10179701;29;20048;-69
2020/12/17 02:10:14;;;;;;;16.00;12.60;;;;;;;8.46;100.00;100750.53;10180779;29;20046;-69
2020/12/17 02:15:17;;;;;;;16.88;12.10;;;;;;;8.50;100.00;100746.91;10178981;29;20052;-69
2020/12/17 02:20:18;;;;;;;16.23;12.85;;;;;;;8.52;100.00;100739.84;10179612;29;20055;-69
2020/12/17 02:25:19;;;;;;;17.75;14.18;;;;;;;8.46;100.00;100728.69;10176528;29;20043;-69
2020/12/17 02:30:20;;;;;;;20.10;13.80;;;;;;;8.46;100.00;100742.66;10177809;29;20056;-69
2020/12/17 02:35:21;;;;;;;17.35;13.55;;;;;;;8.39;100.00;100720.16;10178737;29;20044;-69
2020/12/17 02:40:31;;;;;;;15.80;12.90;;;;;;;8.34;100.00;100737.84;10178593;29;20134;-69
2020/12/17 02:45:32;;;;;;;16.67;13.20;;;;;;;8.32;100.00;100731.78;10178068;29;20051;-69
2020/12/17 02:50:33;;;;;;;16.38;13.05;;;;;;;8.24;100.00;100731.13;10165161;29;20040;-69
2020/12/17 02:55:35;;;;;;;17.27;13.90;;;;;;;8.23;100.00;100725.03;10177443;29;20400;-69
2020/12/17 03:00:37;;;;;;;15.90;13.35;;;;;;;8.23;100.00;100739.91;10177477;29;20389;-69
2020/12/17 03:05:38;;;;;;;17.13;13.80;;;;;;;8.20;100.00;100747.91;10177837;29;20161;-69
2020/12/17 03:10:49;;;;;;;14.98;12.07;;;;;;;8.22;100.00;100738.19;10177033;29;20404;-69
2020/12/17 03:15:50;;;;;;;16.92;13.10;;;;;;;8.20;100.00;100737.41;10177026;29;20044;-69
2020/12/17 03:20:51;;;;;;;17.98;13.85;;;;;;;8.15;100.00;100740.16;10176415;29;20052;-69
2020/12/17 03:25:53;;;;;;;14.15;11.00;;;;;;;8.24;100.00;100754.75;10176751;29;20044;-69
2020/12/17 03:30:54;;;;;;;15.93;12.60;;;;;;;8.22;100.00;100746.91;10177327;29;20469;-69
2020/12/17 03:35:55;;;;;;;14.50;12.13;;;;;;;8.28;100.00;100741.50;10176192;29;20046;-69
2020/12/17 03:41:14;;;;;;;14.30;11.63;;;;;;;8.27;100.00;100739.78;10175357;29;20040;-69
2020/12/17 03:46:15;;;;;;;16.23;12.40;;;;;;;8.23;100.00;100732.91;10175609;29;20071;-69
2020/12/17 03:51:16;;;;;;;16.40;12.40;;;;;;;8.18;100.00;100733.97;10174940;29;20048;-69
2020/12/17 03:56:17;;;;;;;16.98;12.52;;;;;;;8.10;100.00;100726.34;10176105;29;20493;-69
2020/12/17 04:01:19;;;;;;;14.95;11.90;;;;;;;8.03;100.00;100723.97;10175307;29;20044;-69
2020/12/17 04:06:20;;;;;;;16.85;13.25;;;;;;;8.03;100.00;100729.22;10175801;29;20044;-69
2020/12/17 04:11:31;;;;;;;14.60;11.93;;;;;;;8.06;100.00;100723.84;10175706;29;20086;-69
2020/12/17 04:16:32;;;;;;;16.08;12.77;;;;;;;8.08;100.00;100733.41;10173108;29;20416;-69
2020/12/17 04:21:33;;;;;;;14.80;11.32;;;;;;;8.10;100.00;100728.09;10173942;29;20408;-69
2020/12/17 04:26:35;;;;;;;20.27;11.95;;;;;;;8.03;100.00;100745.81;10171879;29;20063;-69
2020/12/17 04:31:36;;;;;;;16.70;11.30;;;;;;;7.94;100.00;100746.97;10174973;29;20488;-69
2020/12/17 04:36:37;;;;;;;16.38;12.90;;;;;;;7.88;100.00;100741.03;10173657;29;20416;-69
2020/12/17 04:41:51;;;;;;;16.15;12.20;;;;;;;7.82;100.00;100749.94;10174322;29;20052;-69
2020/12/17 04:46:59;;;;;;;15.55;12.93;;;;;;;7.95;100.00;100753.91;10174206;29;20476;-69
2020/12/17 04:52:00;;;;;;;15.27;11.02;;;;;;;7.85;100.00;100754.25;10181541;29;20054;-69
2020/12/17 04:57:07;;;;;;;12.40;9.57;;;;;;;8.74;100.00;100774.13;10174136;29;20044;-69
2020/12/17 05:02:09;;;;;;;11.43;9.45;;;;;;;9.15;100.00;100762.16;10183339;29;20048;-69
2020/12/17 05:07:12;;;;;;;12.15;8.75;;;;;;;9.40;100.00;100762.97;10174311;29;20055;-69
2020/12/17 05:12:14;;;;;;;11.52;9.15;;;;;;;9.40;100.00;100748.97;10173463;29;20488;-69
2020/12/17 05:17:15;;;;;;;11.02;8.68;;;;;;;9.43;100.00;100743.63;10172790;29;20060;-69
2020/12/17 05:22:17;;;;;;;13.75;9.25;;;;;;;9.47;100.00;100747.84;10174016;29;20044;-69
2020/12/17 05:27:18;;;;;;;11.30;9.40;;;;;;;9.58;100.00;100748.28;10172851;29;20092;-69
2020/12/17 05:32:20;;;;;;;13.02;9.85;;;;;;;9.59;100.00;100757.91;10173338;29;20048;-69
2020/12/17 05:37:22;;;;;;;13.80;10.18;;;;;;;9.64;100.00;100755.94;10173261;29;20063;-69
2020/12/17 05:42:29;;;;;;;15.00;10.00;;;;;;;9.53;100.00;100758.16;10173945;29;20048;-69
2020/12/17 05:47:30;;;;;;;14.60;10.55;;;;;;;9.56;100.00;100763.25;10172990;29;20044;-69
2020/12/17 05:52:33;;;;;;;14.25;10.38;;;;;;;9.56;100.00;100765.03;10173379;29;20419;-69
2020/12/17 05:57:34;;;;;;;15.82;11.95;;;;;;;9.46;100.00;100768.00;10172502;29;20048;-69
2020/12/17 06:02:35;;;;;;;14.63;12.30;;;;;;;9.40;100.00;100776.13;10172301;29;20048;-69
2020/12/17 06:07:48;;;;;;;19.00;12.13;;;;;;;9.36;100.00;100782.44;10179922;29;20052;-69
2020/12/17 06:13:02;;;;;;;12.90;10.10;;;;;;;9.32;100.00;100801.84;10179691;29;20103;-69
2020/12/17 06:18:03;;;;;;;9.23;7.50;;;;;;;9.24;100.00;100809.16;10179841;29;20131;-69
2020/12/17 06:23:06;;;;;;;10.50;7.82;;;;;;;9.30;100.00;100836.97;10178441;29;21667;-69
2020/12/17 06:28:33;;;;;;;12.07;7.70;;;;;;;9.28;100.00;100850.22;10171581;29;20056;-69
2020/12/17 06:33:36;;;;;;;9.23;6.93;;;;;;;9.36;100.00;100863.09;10175226;29;20444;-69
2020/12/17 06:38:38;;;;;;;11.07;8.00;;;;;;;9.33;100.00;100877.19;10177325;29;20468;-68
2020/12/17 06:43:39;;;;;;;9.68;7.63;;;;;;;9.35;100.00;100892.91;10178270;29;20492;-68
2020/12/17 07:15:35;;;;;;;6.45;3.80;;;;;;;9.30;100.00;100942.16;10571800;27;20431;-68
2020/12/17 07:20:37;;;;;;;8.18;5.75;;;;;;;9.29;100.00;100943.91;10563607;28;20064;-68
2020/12/17 07:25:38;;;;;;;6.75;5.22;;;;;;;9.27;100.00;100958.03;10553129;28;20052;-68
2020/12/17 07:48:55;;;;;;;5.30;3.72;;;;;;;9.09;100.00;100991.03;10556084;27;21226;-68
2020/12/17 07:53:57;;;;;;;4.93;3.22;;;;;;;9.00;100.00;100984.31;10568067;28;20097;-67
2020/12/17 07:59:01;;;;;;;6.22;4.10;;;;;;;8.98;100.00;100991.38;10570312;28;20446;-67
2020/12/17 08:04:03;;;;;;;7.13;4.00;;;;;;;8.86;100.00;100988.28;10571261;28;20039;-68
2020/12/17 08:09:04;;;;;;;5.88;3.35;;;;;;;8.91;100.00;101000.34;10570858;28;20479;-68
2020/12/17 08:14:13;;;;;;;4.82;3.13;;;;;;;8.97;100.00;100997.53;10572900;28;20047;-67
2020/12/17 08:19:14;;;;;;;5.28;3.10;;;;;;;8.88;100.00;100996.94;10574243;28;20086;-67
2020/12/17 08:24:15;;;;;;;4.38;2.80;;;;;;;8.73;100.00;100993.91;10571373;28;20421;-67
2020/12/17 08:29:17;;;;;;;4.03;2.33;;;;;;;8.78;100.00;101008.69;10572815;28;20067;-67
2020/12/17 08:34:18;;;;;;;3.45;2.35;;;;;;;8.72;100.00;101022.84;10572809;28;20092;-67
2020/12/17 08:39:21;;;;;;;2.78;1.73;;;;;;;8.70;100.00;101025.50;10535410;28;20067;-67
2020/12/17 08:44:31;;;;;;;6.18;2.40;;;;;;;8.71;100.00;101035.09;10529804;28;20048;-68
2020/12/17 08:49:33;;;;;;;3.33;2.20;;;;;;;8.74;100.00;101035.03;10509095;28;20051;-67
2020/12/17 08:54:37;;;;;;;3.83;2.00;;;;;;;8.84;100.00;101042.63;10504687;28;20064;-67
2020/12/17 08:59:39;;;;;;;5.15;2.88;;;;;;;8.79;100.00;101041.94;10523532;28;20067;-67
2020/12/17 09:04:40;;;;;;;3.42;2.28;;;;;;;8.70;100.00;101051.78;10522001;28;20044;-67
2020/12/17 09:09:41;;;;;;;5.50;2.53;;;;;;;8.89;100.00;101065.22;10541381;28;20071;-67
2020/12/17 09:14:42;;;;;;;4.35;2.72;;;;;;;9.01;100.00;101057.00;10521658;28;20040;-67
2020/12/17 09:19:46;;;;;;;4.43;2.20;;;;;;;9.09;100.00;101054.13;10541759;28;20047;-67
2020/12/17 09:24:50;;;;;;;4.77;2.80;;;;;;;9.33;100.00;101069.13;10520369;28;20099;-67
2020/12/17 09:30:16;;;;;;;4.30;2.33;;;;;;;9.46;100.00;101070.44;10540797;28;20119;-67
2020/12/17 09:35:17;;;;;;;3.60;1.77;;;;;;;9.72;100.00;101085.38;10512823;28;20118;-67
2020/12/17 09:40:22;;;;;;;3.50;2.20;;;;;;;12.86;100.00;101130.22;10523625;28;20045;-67
2020/12/17 09:45:23;;;;;;;4.28;1.90;;;;;;;11.91;100.00;101068.38;10527327;28;20056;-67
2020/12/17 09:50:24;;;;;;;3.38;1.50;;;;;;;10.30;100.00;101086.03;10532843;28;20078;-67
2020/12/17 09:55:25;;;;;;;2.38;1.65;;;;;;;10.11;100.00;101111.28;10508562;28;20064;-67
2020/12/17 10:00:26;;;;;;;4.65;1.80;;;;;;;10.04;100.00;101120.31;10513054;28;20049;-67
2020/12/17 10:05:27;;;;;;;4.53;2.13;;;;;;;9.93;100.00;101130.31;10524569;28;20461;-67
2020/12/17 10:10:29;;;;;;;4.65;1.80;;;;;;;9.94;100.00;101148.69;10533204;28;20097;-67
2020/12/17 10:15:30;;;;;;;4.32;1.95;;;;;;;9.98;100.00;101159.97;10511455;28;20032;-67
2020/12/17 10:20:33;;;;;;;6.45;2.38;;;;;;;10.30;100.00;101146.63;10538680;28;20097;-67
2020/12/17 10:25:34;;;;;;;4.25;2.35;;;;;;;11.18;100.00;101176.84;10518729;28;20045;-67
2020/12/17 10:30:35;;;;;;;7.70;2.78;;;;;;;10.82;100.00;101150.03;10496782;28;20086;-68
2020/12/17 10:35:36;;;;;;;3.67;2.30;;;;;;;14.19;97.38;101190.94;10503285;28;20438;-67
2020/12/17 10:40:38;;;;;;;4.43;2.35;;;;;;;15.56;84.60;101186.41;10536283;28;20047;-67
2020/12/17 10:45:39;;;;;;;4.35;2.00;;;;;;;12.23;100.00;101135.66;10537181;28;20068;-67
2020/12/17 10:50:40;;;;;;;5.57;2.42;;;;;;;10.80;100.00;101125.50;10529622;28;20045;-67
2020/12/17 10:55:41;;;;;;;5.07;2.50;;;;;;;11.11;100.00;101147.19;10511011;28;20632;-67
2020/12/17 11:00:42;;;;;;;5.70;2.13;;;;;;;14.89;88.45;101192.69;10525093;28;20132;-68
2020/12/17 11:05:43;;;;;;;7.80;2.17;;;;;;;13.31;89.31;101146.72;10496166;28;20455;-67
2020/12/17 11:10:44;;;;;;;4.82;2.30;;;;;;;11.86;100.00;101147.78;10496513;28;20044;-69
2020/12/17 11:15:51;;;;;;;4.22;2.22;;;;;;;11.86;100.00;101154.84;10507503;28;20450;-67
2020/12/17 11:20:52;;;;;;;4.95;2.13;;;;;;;12.07;98.55;101146.88;10539633;28;20097;-67
2020/12/17 11:25:53;;;;;;;4.93;2.20;;;;;;;12.85;100.00;101162.00;10518729;28;20784;-68
2020/12/17 11:30:54;;;;;;;4.35;2.20;;;;;;;13.09;100.00;101186.50;10520787;28;20044;-67
2020/12/17 11:35:55;;;;;;;6.93;2.80;;;;;;;13.58;88.09;101158.63;10535993;28;20151;-69
2020/12/17 11:40:56;;;;;;;4.35;2.00;;;;;;;11.71;99.46;101121.97;10537214;28;20340;-68
2020/12/17 11:46:07;;;;;;;5.65;2.33;;;;;;;13.13;91.37;101166.91;10525567;28;20064;-68
2020/12/17 11:51:08;;;;;;;4.68;2.55;;;;;;;12.48;98.81;101171.53;10530292;28;20052;-68
2020/12/17 11:56:14;;;;;;;4.22;2.35;;;;;;;11.50;100.00;101158.00;10528969;28;20044;-68
2020/12/17 12:01:15;;;;;;;7.88;3.15;;;;;;;10.97;100.00;101149.47;10537782;28;20043;-68
2020/12/17 12:06:18;;;;;;;5.55;2.80;;;;;;;10.86;100.00;101163.06;10535622;28;20055;-68
2020/12/17 12:11:19;;;;;;;6.35;2.83;;;;;;;10.85;100.00;101163.13;10503246;28;20476;-69
2020/12/17 12:16:25;;;;;;;4.45;2.60;;;;;;;11.18;100.00;101175.06;10512396;28;20087;-69
2020/12/17 12:21:26;;;;;;;7.45;3.50;;;;;;;10.92;100.00;101156.69;10537245;28;20040;-68
2020/12/17 12:26:28;;;;;;;8.95;3.55;;;;;;;10.69;100.00;101161.97;10519857;28;20094;-69
2020/12/17 12:31:29;;;;;;;7.45;3.42;;;;;;;10.69;100.00;101173.34;10503208;28;20049;-68
2020/12/17 12:36:30;;;;;;;5.18;2.20;;;;;;;12.30;100.00;101216.41;10520376;28;20491;-68
2020/12/17 12:41:31;;;;;;;4.45;2.38;;;;;;;11.74;99.54;101162.31;10532341;28;20051;-70
2020/12/17 12:46:42;;;;;;;4.97;2.22;;;;;;;11.10;100.00;101158.66;10530936;28;20052;-69
2020/12/17 12:51:43;;;;;;;6.10;2.47;;;;;;;11.03;100.00;101168.59;10515299;28;20040;-70
2020/12/17 12:56:45;;;;;;;5.35;2.40;;;;;;;11.09;100.00;101164.84;10503556;28;20047;-69
2020/12/17 13:01:46;;;;;;;4.97;2.60;;;;;;;10.83;100.00;101165.81;10540993;28;20093;-69
2020/12/17 13:06:47;;;;;;;6.65;2.50;;;;;;;13.73;89.54;101220.59;10524274;28;20052;-70
2020/12/17 13:11:48;;;;;;;4.50;2.15;;;;;;;12.89;85.51;101167.06;10503903;28;20105;-70
2020/12/17 13:17:04;;;;;;;6.07;2.70;;;;;;;12.97;84.34;101158.81;10521651;28;20093;-69
2020/12/17 13:22:05;;;;;;;4.57;2.40;;;;;;;12.50;88.08;101150.34;10524300;28;20049;-69
2020/12/17 13:27:06;;;;;;;6.07;3.22;;;;;;;12.76;89.98;101191.50;10521631;28;20285;-69
2020/12/17 13:32:07;;;;;;;4.50;2.40;;;;;;;11.55;94.71;101153.38;10520298;28;20048;-69
2020/12/17 13:37:08;;;;;;;5.35;2.38;;;;;;;11.77;92.92;101174.56;10518989;28;20052;-68
2020/12/17 13:42:10;;;;;;;6.10;2.50;;;;;;;11.85;95.06;101190.94;10503308;28;20111;-68
2020/12/17 13:47:18;;;;;;;3.78;2.00;;;;;;;11.08;99.29;101168.41;10504477;28;20139;-68
2020/12/17 13:52:19;;;;;;;7.68;2.20;;;;;;;10.91;100.00;101187.47;10518771;28;20041;-68
2020/12/17 13:57:21;;;;;;;4.38;1.80;;;;;;;10.76;98.39;101182.75;10534703;28;20044;-68
2020/12/17 14:02:22;;;;;;;3.42;1.90;;;;;;;10.62;100.00;101191.16;10497186;28;20041;-68
2020/12/17 14:07:23;;;;;;;6.07;2.35;;;;;;;10.48;100.00;101201.31;10494236;28;20430;-69
2020/12/17 14:12:24;;;;;;;4.28;1.83;;;;;;;10.26;100.00;101193.28;10500334;28;20043;-69
2020/12/17 14:17:34;;;;;;;4.07;2.00;;;;;;;10.31;100.00;101197.50;10518968;28;20058;-69
2020/12/17 14:22:35;;;;;;;5.82;2.70;;;;;;;10.14;100.00;101190.16;10522139;28;20510;-69
2020/12/17 14:27:36;;;;;;;23.45;18.27;;;;;;;10.14;100.00;101204.16;10514564;28;20383;-68
2020/12/17 14:32:38;;;;;;;6.35;3.50;;;;;;;10.20;100.00;101211.06;10534766;28;20044;-68
2020/12/17 14:37:39;;;;;;;7.55;3.25;;;;;;;10.10;100.00;101213.09;10513600;28;20048;-69
2020/12/17 14:42:40;;;;;;;9.95;6.30;;;;;;;10.05;100.00;101216.78;10518094;28;20071;-68
2020/12/17 14:47:54;;;;;;;11.98;9.32;;;;;;;9.91;100.00;101227.75;10539073;28;20062;-69
2020/12/17 14:52:56;;;;;;;7.07;5.40;;;;;;;9.78;100.00;101242.22;10508466;28;20483;-68
2020/12/17 14:57:57;;;;;;;14.95;10.15;;;;;;;9.57;100.00;101232.31;10518178;28;20063;-69
2020/12/17 15:02:58;;;;;;;8.55;3.25;;;;;;;9.69;100.00;101248.63;10511454;28;20078;-68
2020/12/17 15:08:00;;;;;;;8.40;2.90;;;;;;;9.45;100.00;101246.72;10529486;28;20058;-69
2020/12/17 15:13:02;;;;;;;8.15;2.90;;;;;;;9.33;100.00;101245.28;10514474;28;20498;-69
2020/12/17 15:18:11;;;;;;;4.45;2.67;;;;;;;9.23;100.00;101259.59;10523989;28;20045;-69
2020/12/17 15:23:12;;;;;;;8.00;2.97;;;;;;;9.55;100.00;101278.84;10512999;28;20058;-68
2020/12/17 15:28:13;;;;;;;29.35;15.68;;;;;;;9.16;100.00;101272.97;10559736;28;20059;-69
2020/12/17 15:33:14;;;;;;;78.75;41.63;;;;;;;8.98;100.00;101279.56;10547210;28;20044;-69
2020/12/17 15:38:16;;;;;;;14.55;9.75;;;;;;;8.93;100.00;101292.84;10535577;28;20055;-69
2020/12/17 15:43:18;;;;;;;10.48;8.88;;;;;;;8.94;100.00;101305.09;10517675;28;20036;-69
2020/12/17 15:48:35;;;;;;;6.38;3.75;;;;;;;8.94;100.00;101326.13;10527145;28;20045;-69
2020/12/17 15:53:37;;;;;;;8.23;3.53;;;;;;;8.73;100.00;101311.75;10521588;28;20368;-69
2020/12/17 15:58:39;;;;;;;6.95;3.67;;;;;;;8.66;100.00;101336.47;10516743;28;20044;-69
2020/12/17 16:03:40;;;;;;;7.40;3.30;;;;;;;8.62;100.00;101347.09;10510104;28;20041;-69
2020/12/17 16:08:47;;;;;;;8.27;3.90;;;;;;;8.38;100.00;101345.88;10505662;28;20130;-70
2020/12/17 16:13:48;;;;;;;11.18;8.07;;;;;;;8.37;100.00;101366.03;10509900;28;20487;-70
2020/12/17 16:18:53;;;;;;;8.50;4.00;;;;;;;8.23;100.00;101369.84;10504465;28;20047;-70
2020/12/17 16:23:54;;;;;;;7.38;3.92;;;;;;;8.34;100.00;101391.50;10526074;28;20053;-70
2020/12/17 16:28:55;;;;;;;5.18;2.92;;;;;;;8.34;100.00;101384.50;10517939;28;20106;-70
2020/12/17 16:33:56;;;;;;;6.60;4.82;;;;;;;8.45;100.00;101389.50;10515726;28;20499;-70
2020/12/17 16:38:59;;;;;;;9.52;5.20;;;;;;;8.54;100.00;101389.25;10501259;28;20561;-70
2020/12/17 16:44:03;;;;;;;6.03;2.67;;;;;;;8.62;100.00;101378.59;10528446;28;20048;-70
2020/12/17 16:49:07;;;;;;;5.32;2.80;;;;;;;8.70;100.00;101392.41;10543306;28;20063;-70
2020/12/17 16:54:08;;;;;;;61.38;32.63;;;;;;;8.78;100.00;101392.22;10519703;28;20489;-70
2020/12/17 16:59:09;;;;;;;7.00;5.30;;;;;;;8.89;100.00;101398.06;10525641;28;20040;-70
2020/12/17 17:04:10;;;;;;;6.78;4.00;;;;;;;8.67;100.00;101388.09;10526101;28;20507;-70
2020/12/17 17:09:11;;;;;;;6.88;3.35;;;;;;;8.58;100.00;101387.44;10502169;28;20064;-70
2020/12/17 17:14:12;;;;;;;5.65;3.65;;;;;;;8.31;100.00;101397.69;10505285;28;20044;-70
2020/12/17 17:19:25;;;;;;;7.68;3.38;;;;;;;8.20;100.00;101394.38;10501109;28;20044;-70
2020/12/17 17:24:26;;;;;;;7.28;3.05;;;;;;;8.28;100.00;101416.09;10517237;28;20036;-70
2020/12/17 17:29:28;;;;;;;8.77;3.33;;;;;;;8.24;100.00;101416.19;10543377;28;20050;-70
2020/12/17 17:34:29;;;;;;;8.25;3.25;;;;;;;8.32;100.00;101424.78;10513745;28;20419;-70
2020/12/17 17:39:30;;;;;;;8.52;3.83;;;;;;;8.37;100.00;101430.78;10528976;28;20040;-70
2020/12/17 17:44:31;;;;;;;7.60;3.08;;;;;;;8.40;100.00;101443.00;10513398;28;20045;-70
2020/12/17 17:49:40;;;;;;;6.63;2.47;;;;;;;8.32;100.00;101430.03;10529507;28;20040;-70
2020/12/17 17:54:43;;;;;;;8.00;2.50;;;;;;;8.20;100.00;101425.03;10500758;28;20124;-70
2020/12/17 17:59:44;;;;;;;8.40;2.65;;;;;;;8.14;100.00;101422.53;10522518;28;20040;-70
2020/12/17 18:04:45;;;;;;;6.75;2.33;;;;;;;7.93;100.00;101424.72;10500903;28;20044;-70
2020/12/17 18:09:46;;;;;;;17.27;11.18;;;;;;;7.83;100.00;101438.91;10498521;28;20047;-70
2020/12/17 18:14:47;;;;;;;28.42;20.27;;;;;;;7.54;100.00;101430.72;10519636;28;20040;-70
2020/12/17 18:19:56;;;;;;;30.42;22.75;;;;;;;7.40;100.00;101425.72;10509179;28;20059;-70
2020/12/17 18:24:57;;;;;;;52.30;36.92;;;;;;;7.18;100.00;101430.50;10501907;28;20041;-70
2020/12/17 18:29:58;;;;;;;8.50;4.13;;;;;;;7.20;100.00;101448.78;10517870;28;20036;-70
2020/12/17 18:35:02;;;;;;;7.03;4.97;;;;;;;7.04;100.00;101442.06;10530823;28;20040;-71
2020/12/17 18:40:04;;;;;;;5.57;3.50;;;;;;;6.85;100.00;101441.53;10521837;28;20055;-70
2020/12/17 18:45:05;;;;;;;10.63;5.38;;;;;;;6.73;100.00;101458.28;10513353;28;20060;-70
2020/12/17 18:50:12;;;;;;;7.60;4.75;;;;;;;6.63;100.00;101472.38;10499713;28;20044;-70
2020/12/17 18:55:14;;;;;;;7.32;4.22;;;;;;;6.67;100.00;101481.94;10517182;28;20047;-70
2020/12/17 19:00:15;;;;;;;6.85;3.60;;;;;;;6.64;100.00;101478.50;10526936;28;20823;-70
2020/12/17 19:05:16;;;;;;;6.82;3.35;;;;;;;6.47;100.00;101483.97;10524653;28;20045;-70
2020/12/17 19:10:18;;;;;;;6.93;3.35;;;;;;;6.33;100.00;101486.75;10505575;28;20051;-70
2020/12/17 19:15:20;;;;;;;5.78;3.70;;;;;;;6.26;100.00;101486.88;10496746;28;20388;-70
2020/12/17 19:20:30;;;;;;;17.02;9.73;;;;;;;6.20;100.00;101500.88;10522524;28;20040;-70
2020/12/17 19:25:31;;;;;;;5.57;3.75;;;;;;;6.54;100.00;101524.00;10536971;28;20039;-70
2020/12/17 19:30:32;;;;;;;9.13;7.55;;;;;;;7.00;100.00;101535.59;10566232;28;20032;-70
2020/12/17 19:35:33;;;;;;;7.43;5.63;;;;;;;7.03;100.00;101527.66;10523072;28;20557;-70
2020/12/17 19:40:34;;;;;;;10.10;9.10;;;;;;;7.00;100.00;101519.88;10508386;28;20048;-70
2020/12/17 19:45:36;;;;;;;10.38;6.65;;;;;;;7.12;100.00;101524.03;10515585;28;20102;-70
2020/12/17 19:50:46;;;;;;;8.77;4.78;;;;;;;7.06;100.00;101513.66;10516644;28;20051;-70
2020/12/17 19:55:48;;;;;;;15.35;11.30;;;;;;;7.05;100.00;101518.03;10515277;28;20033;-70
2020/12/17 20:00:49;;;;;;;9.57;5.03;;;;;;;6.94;100.00;101519.09;10532422;28;20085;-70
2020/12/17 20:05:54;;;;;;;22.77;17.45;;;;;;;6.85;100.00;101525.34;10521510;28;20047;-70
2020/12/17 20:10:56;;;;;;;17.15;13.85;;;;;;;6.65;100.00;101525.59;10514390;28;20043;-70
2020/12/17 20:15:57;;;;;;;13.07;8.10;;;;;;;6.58;100.00;101531.81;10525381;28;20044;-70
2020/12/17 20:21:01;;;;;;;14.18;7.72;;;;;;;6.59;100.00;101546.63;10515538;28;20051;-70
2020/12/17 20:26:02;;;;;;;19.20;11.38;;;;;;;6.64;100.00;101563.13;10536341;28;20113;-70
2020/12/17 20:31:03;;;;;;;11.20;7.00;;;;;;;6.70;100.00;101570.91;10505474;28;20048;-70
2020/12/17 20:36:05;;;;;;;11.30;6.75;;;;;;;6.70;100.00;101578.75;10499230;28;20115;-70
2020/12/17 20:41:06;;;;;;;14.45;7.90;;;;;;;6.67;100.00;101557.88;10520477;28;20578;-70
2020/12/17 20:46:11;;;;;;;16.65;7.63;;;;;;;6.71;100.00;101572.66;10502089;28;20063;-70
2020/12/17 20:51:21;;;;;;;11.10;5.47;;;;;;;6.68;100.00;101566.59;10499529;28;20052;-70
2020/12/17 20:56:22;;;;;;;12.82;7.70;;;;;;;6.69;100.00;101573.56;10527107;28;20129;-70
2020/12/17 21:01:23;;;;;;;8.80;5.47;;;;;;;6.64;100.00;101564.88;10531283;28;20048;-70
2020/12/17 21:06:25;;;;;;;12.43;5.45;;;;;;;6.59;100.00;101559.72;10500562;28;20044;-72
2020/12/17 21:11:27;;;;;;;9.60;5.85;;;;;;;6.51;100.00;101556.34;10542184;28;20050;-71
2020/12/17 21:16:28;;;;;;;9.05;5.40;;;;;;;6.46;100.00;101556.38;10542044;28;20036;-72
2020/12/17 21:21:39;;;;;;;7.95;5.68;;;;;;;6.37;100.00;101560.84;10521340;28;20060;-71
2020/12/17 21:26:41;;;;;;;9.23;4.53;;;;;;;6.22;100.00;101561.03;10514196;28;20055;-72
2020/12/17 21:31:48;;;;;;;8.20;5.45;;;;;;;6.13;100.00;101572.47;10542177;28;20048;-72
2020/12/17 21:36:57;;;;;;;9.13;5.00;;;;;;;6.14;100.00;101581.19;10524312;28;20086;-72
2020/12/17 21:41:58;;;;;;;8.40;5.53;;;;;;;6.09;100.00;101581.25;10498621;28;20452;-71
2020/12/17 21:46:59;;;;;;;7.13;4.20;;;;;;;6.08;100.00;101582.13;10500587;28;20067;-72
2020/12/17 21:52:00;;;;;;;9.00;5.15;;;;;;;6.03;100.00;101583.91;10500487;28;20099;-72
2020/12/17 21:57:01;;;;;;;8.80;4.72;;;;;;;5.93;100.00;101584.91;10500391;28;20052;-71
2020/12/17 22:02:03;;;;;;;6.63;4.18;;;;;;;5.83;100.00;101580.59;10497916;28;20044;-71
2020/12/17 22:07:04;;;;;;;6.93;5.20;;;;;;;5.58;100.00;101587.78;10512109;28;20044;-72
2020/12/17 22:12:05;;;;;;;9.10;5.03;;;;;;;5.53;100.00;101598.25;10501214;28;20110;-72
2020/12/17 22:17:06;;;;;;;7.07;4.53;;;;;;;5.43;100.00;101601.84;10513873;28;20035;-71
2020/12/17 22:22:16;;;;;;;6.70;5.03;;;;;;;5.24;100.00;101606.31;10516370;28;20402;-72
2020/12/17 22:27:18;;;;;;;7.70;5.18;;;;;;;5.14;100.00;101609.84;10513604;28;20425;-72
2020/12/17 22:32:19;;;;;;;9.63;8.02;;;;;;;5.14;100.00;101611.59;10536061;28;20075;-72
2020/12/17 22:37:20;;;;;;;13.27;11.73;;;;;;;5.08;100.00;101614.25;10512437;28;20040;-72
2020/12/17 22:42:21;;;;;;;7.72;5.75;;;;;;;5.06;100.00;101622.09;10519500;28;20075;-71
2020/12/17 22:47:22;;;;;;;10.77;6.68;;;;;;;4.95;100.00;101619.53;10500432;28;20063;-71
2020/12/17 22:52:33;;;;;;;27.17;11.52;;;;;;;5.33;100.00;101637.59;10529412;28;20094;-72
2020/12/17 22:57:34;;;;;;;16.42;9.10;;;;;;;5.32;100.00;101629.78;10516318;28;20041;-72
2020/12/17 23:02:36;;;;;;;12.30;7.15;;;;;;;5.28;100.00;101639.34;10520580;28;20071;-71
2020/12/17 23:07:37;;;;;;;8.85;5.35;;;;;;;5.12;100.00;101631.63;10516678;28;20369;-71
2020/12/17 23:12:38;;;;;;;10.77;6.40;;;;;;;5.00;100.00;101653.47;10530467;28;20395;-72
2020/12/17 23:17:39;;;;;;;17.80;8.27;;;;;;;4.90;100.00;101651.75;10513499;28;20048;-71
2020/12/17 23:22:47;;;;;;;20.27;9.98;;;;;;;4.86;100.00;101660.47;10496034;28;20047;-71
2020/12/17 23:27:48;;;;;;;35.78;13.73;;;;;;;4.78;100.00;101651.78;10521154;28;20040;-71
2020/12/17 23:32:49;;;;;;;37.13;12.95;;;;;;;4.85;100.00;101666.59;10516952;28;20044;-71
2020/12/17 23:37:51;;;;;;;28.40;11.27;;;;;;;4.88;100.00;101671.78;10521035;28;20040;-72
2020/12/17 23:42:52;;;;;;;14.82;7.15;;;;;;;4.51;100.00;101653.66;10506237;28;20047;-71